createdAt,value
2018-12-31T00:00:36.463Z,18.23
2018-12-31T00:03:06.645Z,24.53
2018-12-31T00:05:36.644Z,19.83
2018-12-31T00:08:06.264Z,26.80
2018-12-31T00:10:35.752Z,23.90
2018-12-31T00:13:05.503Z,23.70
2018-12-31T00:15:35.449Z,35.60
2018-12-31T00:18:05.269Z,27.53
2018-12-31T00:20:35.218Z,28.20
2018-12-31T00:23:04.733Z,29.90
2018-12-31T00:25:34.501Z,28.90
2018-12-31T00:28:04.336Z,27.93
2018-12-31T00:30:34.102Z,27.03
2018-12-31T00:33:03.925Z,31.53
2018-12-31T00:35:33.814Z,29.43
2018-12-31T00:38:03.311Z,29.37
2018-12-31T00:40:32.820Z,26.07
2018-12-31T00:43:02.560Z,25.15
2018-12-31T00:45:32.087Z,23.23
2018-12-31T00:48:01.875Z,26.90
2018-12-31T00:50:31.704Z,28.62
2018-12-31T00:53:01.229Z,24.17
2018-12-31T00:55:31.039Z,25.87
2018-12-31T00:58:01.193Z,27.13
2018-12-31T01:00:30.705Z,29.37
2018-12-31T01:03:00.868Z,22.90
2018-12-31T01:05:30.649Z,23.60
2018-12-31T01:08:00.531Z,26.53
2018-12-31T01:10:30.140Z,28.40
2018-12-31T01:13:00.178Z,24.40
2018-12-31T01:15:29.977Z,23.20
2018-12-31T01:17:59.762Z,21.70
2018-12-31T01:20:29.588Z,31.93
2018-12-31T01:22:59.403Z,24.20
2018-12-31T01:25:29.167Z,20.83
2018-12-31T01:27:58.664Z,25.90
2018-12-31T01:30:28.491Z,23.98
2018-12-31T01:32:57.966Z,26.43
2018-12-31T01:35:27.454Z,24.33
2018-12-31T01:37:56.983Z,19.80
2018-12-31T01:40:27.029Z,27.23
2018-12-31T01:42:56.813Z,21.17
2018-12-31T01:45:26.595Z,26.37
2018-12-31T01:47:56.360Z,21.90
2018-12-31T01:50:26.129Z,20.60
2018-12-31T01:52:55.732Z,21.73
2018-12-31T01:55:25.510Z,23.80
2018-12-31T01:57:55.571Z,28.40
2018-12-31T02:00:25.060Z,23.93
2018-12-31T02:02:54.539Z,27.03
2018-12-31T02:05:24.296Z,24.80
2018-12-31T02:07:54.387Z,26.33
2018-12-31T02:10:23.872Z,25.88
2018-12-31T02:12:53.945Z,27.93
2018-12-31T02:15:23.702Z,32.97
2018-12-31T02:17:53.531Z,35.10
2018-12-31T02:20:23.059Z,36.00
2018-12-31T02:22:52.925Z,40.83
2018-12-31T02:25:22.420Z,28.93
2018-12-31T02:27:51.944Z,36.05
2018-12-31T02:30:26.337Z,36.40
2018-12-31T02:32:59.935Z,27.07
2018-12-31T02:35:29.490Z,30.72
2018-12-31T02:37:58.969Z,25.40
2018-12-31T02:40:29.025Z,32.70
2018-12-31T02:42:58.633Z,30.57
2018-12-31T02:45:28.562Z,33.97
2018-12-31T02:47:58.454Z,36.20
2018-12-31T02:50:27.967Z,32.57
2018-12-31T02:52:57.748Z,29.57
2018-12-31T02:55:27.253Z,28.80
2018-12-31T02:57:57.102Z,25.50
2018-12-31T03:00:26.684Z,27.23
2018-12-31T03:02:56.775Z,30.63
2018-12-31T03:05:26.535Z,31.03
2018-12-31T03:07:56.052Z,27.40
2018-12-31T03:10:25.826Z,24.92
2018-12-31T03:12:55.438Z,27.77
2018-12-31T03:15:25.022Z,25.80
2018-12-31T03:17:54.842Z,28.42
2018-12-31T03:20:24.753Z,31.57
2018-12-31T03:22:54.773Z,29.93
2018-12-31T03:25:24.948Z,34.05
2018-12-31T03:27:55.047Z,34.80
2018-12-31T03:30:24.891Z,31.62
2018-12-31T03:32:55.018Z,36.60
2018-12-31T03:35:24.805Z,31.97
2018-12-31T03:37:55.138Z,35.65
2018-12-31T03:40:24.858Z,36.53
2018-12-31T03:42:55.215Z,38.95
2018-12-31T03:45:25.182Z,41.05
2018-12-31T03:47:55.082Z,37.30
2018-12-31T03:50:24.885Z,37.13
2018-12-31T03:52:54.869Z,34.98
2018-12-31T03:55:24.866Z,35.78
2018-12-31T03:57:55.349Z,34.93
2018-12-31T04:00:25.296Z,34.57
2018-12-31T04:02:55.291Z,35.43
2018-12-31T04:05:25.409Z,39.77
2018-12-31T04:07:55.687Z,38.27
2018-12-31T04:10:25.465Z,37.00
2018-12-31T04:12:56.093Z,39.23
2018-12-31T04:15:25.602Z,41.33
2018-12-31T04:17:55.145Z,40.73
2018-12-31T04:20:25.154Z,48.80
2018-12-31T04:22:55.468Z,44.33
2018-12-31T04:25:25.099Z,40.67
2018-12-31T04:27:55.528Z,50.65
2018-12-31T04:30:25.765Z,51.57
2018-12-31T04:32:55.936Z,45.30
2018-12-31T04:35:25.455Z,51.57
2018-12-31T04:37:55.027Z,59.63
2018-12-31T04:40:25.310Z,53.52
2018-12-31T04:42:55.332Z,70.25
2018-12-31T04:45:25.384Z,56.13
2018-12-31T04:47:55.348Z,78.75
2018-12-31T04:50:25.365Z,83.30
2018-12-31T04:52:56.598Z,77.33
2018-12-31T04:55:26.149Z,74.77
2018-12-31T04:57:55.647Z,79.80
2018-12-31T05:00:25.537Z,84.05
2018-12-31T05:02:55.371Z,73.63
2018-12-31T05:05:25.454Z,90.00
2018-12-31T05:07:55.352Z,87.23
2018-12-31T05:10:25.157Z,90.05
2018-12-31T05:12:55.166Z,86.78
2018-12-31T05:15:25.432Z,85.67
2018-12-31T05:17:55.461Z,91.65
2018-12-31T05:20:25.189Z,78.17
2018-12-31T05:22:55.325Z,97.60
2018-12-31T05:25:25.479Z,93.45
2018-12-31T05:27:55.188Z,90.67
2018-12-31T05:30:25.449Z,107.70
2018-12-31T05:32:55.197Z,111.50
2018-12-31T05:35:25.216Z,119.72
2018-12-31T05:37:55.508Z,108.25
2018-12-31T05:40:25.470Z,105.10
2018-12-31T05:42:55.191Z,97.62
2018-12-31T05:45:25.544Z,115.15
2018-12-31T05:47:55.537Z,110.48
2018-12-31T05:50:25.770Z,116.05
2018-12-31T05:52:55.433Z,107.55
2018-12-31T05:55:25.295Z,107.23
2018-12-31T05:57:55.476Z,95.95
2018-12-31T06:00:25.543Z,122.83
2018-12-31T06:02:55.223Z,122.55
2018-12-31T06:05:25.761Z,116.15
2018-12-31T06:07:56.230Z,117.67
2018-12-31T06:10:26.042Z,127.07
2018-12-31T06:12:55.845Z,118.60
2018-12-31T06:15:25.611Z,117.77
2018-12-31T06:17:55.570Z,135.40
2018-12-31T06:20:25.283Z,139.05
2018-12-31T06:22:55.545Z,131.25
2018-12-31T06:25:25.746Z,133.93
2018-12-31T06:27:55.264Z,127.90
2018-12-31T06:30:26.030Z,127.82
2018-12-31T06:32:56.522Z,140.23
2018-12-31T06:35:26.355Z,119.07
2018-12-31T06:37:56.218Z,113.23
2018-12-31T06:40:26.031Z,120.33
2018-12-31T06:42:55.512Z,122.17
2018-12-31T06:45:25.488Z,120.28
2018-12-31T06:47:55.302Z,110.13
2018-12-31T06:50:25.353Z,119.47
2018-12-31T06:52:57.569Z,114.00
2018-12-31T06:55:27.139Z,101.60
2018-12-31T06:57:57.162Z,113.03
2018-12-31T07:00:26.978Z,97.50
2018-12-31T07:02:56.459Z,113.13
2018-12-31T07:05:26.244Z,114.40
2018-12-31T07:07:55.773Z,112.17
2018-12-31T07:10:25.669Z,100.87
2018-12-31T07:12:55.409Z,105.65
2018-12-31T07:15:25.699Z,101.25
2018-12-31T07:17:55.865Z,115.32
2018-12-31T07:20:25.815Z,103.37
2018-12-31T07:22:55.479Z,104.03
2018-12-31T07:25:25.808Z,113.12
2018-12-31T07:27:55.420Z,102.40
2018-12-31T07:30:25.708Z,107.92
2018-12-31T07:32:56.157Z,119.28
2018-12-31T07:35:25.653Z,139.23
2018-12-31T07:37:55.615Z,114.12
2018-12-31T07:40:25.694Z,114.15
2018-12-31T07:42:55.425Z,124.23
2018-12-31T07:45:25.712Z,112.90
2018-12-31T07:47:55.470Z,109.00
2018-12-31T07:50:25.487Z,90.75
2018-12-31T07:52:55.753Z,94.33
2018-12-31T07:55:25.605Z,102.35
2018-12-31T07:57:55.749Z,110.73
2018-12-31T08:00:25.476Z,97.40
2018-12-31T08:02:55.760Z,94.62
2018-12-31T08:05:25.458Z,94.33
2018-12-31T08:07:55.463Z,85.53
2018-12-31T08:10:25.929Z,91.97
2018-12-31T08:12:55.486Z,86.07
2018-12-31T08:15:25.466Z,84.28
2018-12-31T08:17:55.474Z,76.90
2018-12-31T08:20:25.482Z,79.82
2018-12-31T08:22:55.491Z,70.00
2018-12-31T08:25:25.517Z,66.05
2018-12-31T08:27:55.022Z,74.50
2018-12-31T08:30:25.796Z,65.28
2018-12-31T08:32:55.816Z,63.17
2018-12-31T08:35:25.536Z,58.52
2018-12-31T08:37:59.272Z,55.50
2018-12-31T08:40:30.496Z,57.38
2018-12-31T08:43:00.319Z,58.42
2018-12-31T08:45:29.803Z,49.58
2018-12-31T08:48:00.596Z,52.47
2018-12-31T08:50:30.357Z,54.00
2018-12-31T08:52:59.874Z,55.65
2018-12-31T08:55:29.362Z,48.90
2018-12-31T08:57:59.098Z,50.83
2018-12-31T09:00:28.601Z,46.23
2018-12-31T09:02:58.120Z,43.77
2018-12-31T09:05:27.661Z,44.07
2018-12-31T09:07:57.452Z,47.20
2018-12-31T09:10:27.236Z,40.40
2018-12-31T09:12:56.967Z,42.80
2018-12-31T09:15:26.590Z,46.33
2018-12-31T09:17:56.637Z,42.80
2018-12-31T09:20:26.141Z,40.53
2018-12-31T09:22:55.664Z,37.17
2018-12-31T09:25:25.950Z,37.73
2018-12-31T09:27:55.958Z,43.57
2018-12-31T09:30:25.635Z,40.28
2018-12-31T09:32:56.667Z,40.67
2018-12-31T09:35:26.189Z,36.47
2018-12-31T09:37:55.795Z,29.80
2018-12-31T09:40:27.178Z,33.20
2018-12-31T09:42:56.663Z,32.25
2018-12-31T09:45:26.560Z,31.70
2018-12-31T09:47:56.056Z,30.73
2018-12-31T09:50:26.072Z,28.83
2018-12-31T09:52:55.770Z,28.50
2018-12-31T09:55:26.211Z,32.28
2018-12-31T09:57:56.025Z,28.00
2018-12-31T10:00:26.021Z,23.77
2018-12-31T10:02:55.835Z,26.77
2018-12-31T10:05:25.793Z,30.32
2018-12-31T10:07:55.766Z,27.85
2018-12-31T10:10:26.079Z,28.00
2018-12-31T10:12:56.026Z,17.65
2018-12-31T10:15:25.834Z,28.83
2018-12-31T10:17:56.192Z,20.23
2018-12-31T10:20:26.187Z,18.85
2018-12-31T10:22:56.172Z,17.47
2018-12-31T10:25:25.913Z,18.90
2018-12-31T10:27:56.932Z,17.53
2018-12-31T10:30:26.714Z,15.67
2018-12-31T10:32:56.191Z,18.03
2018-12-31T10:35:25.918Z,11.35
2018-12-31T10:37:56.162Z,12.50
2018-12-31T10:40:25.921Z,13.73
2018-12-31T10:42:56.172Z,13.58
2018-12-31T10:45:26.289Z,13.33
2018-12-31T10:47:56.190Z,14.37
2018-12-31T10:50:25.951Z,13.13
2018-12-31T10:52:56.174Z,15.88
2018-12-31T10:55:25.985Z,12.85
2018-12-31T10:57:56.259Z,18.30
2018-12-31T11:00:26.029Z,15.50
2018-12-31T11:02:56.165Z,15.18
2018-12-31T11:05:25.948Z,14.27
2018-12-31T11:07:56.013Z,15.60
2018-12-31T11:10:26.005Z,16.53
2018-12-31T11:12:56.559Z,16.82
2018-12-31T11:15:26.295Z,16.53
2018-12-31T11:17:56.708Z,16.93
2018-12-31T11:20:27.475Z,16.17
2018-12-31T11:22:57.273Z,17.80
2018-12-31T11:25:26.786Z,14.70
2018-12-31T11:27:56.613Z,15.70
2018-12-31T11:30:26.187Z,16.30
2018-12-31T11:32:56.237Z,14.75
2018-12-31T11:35:26.169Z,18.52
2018-12-31T11:37:56.130Z,20.27
2018-12-31T11:40:26.130Z,15.43
2018-12-31T11:42:56.722Z,12.13
2018-12-31T11:45:26.275Z,11.47
2018-12-31T11:47:56.153Z,13.13
2018-12-31T11:50:26.152Z,14.25
2018-12-31T11:52:56.478Z,11.18
2018-12-31T11:55:26.424Z,12.75
2018-12-31T11:57:56.271Z,13.40
2018-12-31T12:00:26.173Z,13.25
2018-12-31T12:02:56.502Z,12.97
2018-12-31T12:05:26.186Z,14.18
2018-12-31T12:07:56.221Z,14.70
2018-12-31T12:10:26.744Z,15.98
2018-12-31T12:12:56.269Z,14.70
2018-12-31T12:15:27.006Z,13.62
2018-12-31T12:17:56.509Z,14.07
2018-12-31T12:20:26.261Z,13.30
2018-12-31T12:22:56.355Z,13.78
2018-12-31T12:25:26.967Z,14.15
2018-12-31T12:27:58.405Z,13.57
2018-12-31T12:30:28.742Z,13.07
2018-12-31T12:32:58.524Z,15.97
2018-12-31T12:35:28.333Z,13.03
2018-12-31T12:37:57.809Z,18.07
2018-12-31T12:40:27.884Z,17.70
2018-12-31T12:42:57.618Z,14.43
2018-12-31T12:45:27.211Z,15.47
2018-12-31T12:47:56.783Z,10.63
2018-12-31T12:50:26.689Z,14.83
2018-12-31T12:52:56.608Z,15.43
2018-12-31T12:55:26.950Z,10.43
2018-12-31T12:57:56.730Z,11.63
2018-12-31T13:00:27.084Z,10.00
2018-12-31T13:02:57.373Z,9.50
2018-12-31T13:05:26.873Z,11.63
2018-12-31T13:07:57.184Z,8.90
2018-12-31T13:10:27.475Z,11.12
2018-12-31T13:12:57.279Z,9.53
2018-12-31T13:15:27.034Z,11.30
2018-12-31T13:17:57.433Z,9.17
2018-12-31T13:20:27.689Z,10.63
2018-12-31T13:22:57.273Z,12.43
2018-12-31T13:25:27.173Z,10.82
2018-12-31T13:27:57.588Z,11.87
2018-12-31T13:30:27.480Z,13.37
2018-12-31T13:32:57.916Z,12.90
2018-12-31T13:35:27.427Z,13.23
2018-12-31T13:37:58.032Z,14.70
2018-12-31T13:40:27.813Z,16.93
2018-12-31T13:42:58.869Z,16.30
2018-12-31T13:45:28.353Z,13.75
2018-12-31T13:47:57.925Z,18.90
2018-12-31T13:50:27.619Z,26.87
2018-12-31T13:52:57.872Z,23.73
2018-12-31T13:55:27.732Z,27.65
2018-12-31T13:57:57.483Z,35.93
2018-12-31T14:00:28.018Z,41.85
2018-12-31T14:02:58.175Z,42.37
2018-12-31T14:05:28.437Z,47.17
2018-12-31T14:07:58.468Z,51.80
2018-12-31T14:10:28.063Z,55.10
2018-12-31T14:12:58.388Z,53.15
2018-12-31T14:15:27.974Z,53.58
2018-12-31T14:17:58.582Z,59.87
2018-12-31T14:20:28.229Z,60.73
2018-12-31T14:22:58.096Z,62.10
2018-12-31T14:25:28.154Z,60.73
2018-12-31T14:27:58.216Z,57.23
2018-12-31T14:30:28.697Z,55.03
2018-12-31T14:32:58.318Z,57.53
2018-12-31T14:35:28.892Z,54.07
2018-12-31T14:37:58.436Z,58.10
2018-12-31T14:40:28.898Z,51.40
2018-12-31T14:42:58.946Z,51.90
2018-12-31T14:45:28.860Z,48.73
2018-12-31T14:47:58.559Z,41.97
2018-12-31T14:50:28.611Z,43.73
2018-12-31T14:52:58.639Z,41.10
2018-12-31T14:55:28.727Z,50.85
2018-12-31T14:57:58.680Z,48.73
2018-12-31T15:00:28.772Z,43.70
2018-12-31T15:02:58.783Z,44.67
2018-12-31T15:05:28.841Z,44.87
2018-12-31T15:07:58.929Z,39.93
2018-12-31T15:10:28.846Z,41.43
2018-12-31T15:12:58.945Z,44.20
2018-12-31T15:15:29.691Z,37.73
2018-12-31T15:17:59.281Z,39.83
2018-12-31T15:20:29.602Z,40.23
2018-12-31T15:22:59.453Z,41.70
2018-12-31T15:25:29.892Z,42.43
2018-12-31T15:27:59.462Z,46.23
2018-12-31T15:30:29.508Z,45.73
2018-12-31T15:32:59.416Z,43.58
2018-12-31T15:35:29.405Z,43.58
2018-12-31T15:37:59.450Z,45.98
2018-12-31T15:40:29.470Z,43.35
2018-12-31T15:42:59.773Z,41.77
2018-12-31T15:45:29.914Z,47.03
2018-12-31T15:47:59.690Z,45.57
2018-12-31T15:50:29.659Z,45.28
2018-12-31T15:53:00.167Z,40.93
2018-12-31T15:55:30.010Z,42.00
2018-12-31T15:57:59.750Z,43.03
2018-12-31T16:00:30.104Z,43.00
2018-12-31T16:03:00.075Z,38.97
2018-12-31T16:05:30.235Z,36.97
2018-12-31T16:08:00.070Z,39.55
2018-12-31T16:10:30.290Z,37.30
2018-12-31T16:12:59.963Z,34.80
2018-12-31T16:15:30.202Z,37.25
2018-12-31T16:18:00.091Z,36.83
2018-12-31T16:20:30.151Z,32.65
2018-12-31T16:23:00.244Z,32.77
2018-12-31T16:25:30.249Z,35.65
2018-12-31T16:28:00.261Z,41.33
2018-12-31T16:30:30.732Z,35.03
2018-12-31T16:33:00.312Z,56.60
2018-12-31T16:35:30.384Z,43.00
2018-12-31T16:38:00.415Z,72.37
2018-12-31T16:40:30.745Z,58.57
2018-12-31T16:43:00.888Z,46.90
2018-12-31T16:45:31.051Z,50.93
2018-12-31T16:48:01.010Z,45.77
2018-12-31T16:50:30.635Z,47.23
2018-12-31T16:53:00.835Z,57.33
2018-12-31T16:55:30.997Z,52.73
2018-12-31T16:58:01.044Z,49.40
2018-12-31T17:00:31.846Z,44.57
2018-12-31T17:03:01.386Z,55.27
2018-12-31T17:05:31.202Z,46.97
2018-12-31T17:08:00.862Z,49.53
2018-12-31T17:10:30.996Z,46.33
2018-12-31T17:13:01.098Z,47.85
2018-12-31T17:15:31.019Z,45.38
2018-12-31T17:18:01.021Z,40.83
2018-12-31T17:20:31.123Z,38.63
2018-12-31T17:23:01.072Z,47.88
2018-12-31T17:25:31.780Z,42.40
2018-12-31T17:28:01.562Z,45.53
2018-12-31T17:30:31.381Z,40.60
2018-12-31T17:33:01.501Z,45.63
2018-12-31T17:35:31.704Z,49.30
2018-12-31T17:38:01.601Z,37.15
2018-12-31T17:40:31.505Z,40.15
2018-12-31T17:43:01.949Z,46.75
2018-12-31T17:45:31.713Z,43.23
2018-12-31T17:48:01.600Z,38.03
2018-12-31T17:50:31.731Z,31.30
2018-12-31T17:53:01.788Z,28.90
2018-12-31T17:55:31.678Z,34.35
2018-12-31T17:58:02.016Z,25.20
2018-12-31T18:00:32.060Z,30.32
2018-12-31T18:03:01.972Z,23.32
2018-12-31T18:05:32.030Z,28.95
2018-12-31T18:08:02.050Z,34.48
2018-12-31T18:10:32.214Z,29.70
2018-12-31T18:13:02.244Z,27.30
2018-12-31T18:15:32.039Z,31.75
2018-12-31T18:18:02.370Z,32.10
2018-12-31T18:20:32.231Z,29.67
2018-12-31T18:23:02.666Z,27.70
2018-12-31T18:25:32.207Z,22.70
2018-12-31T18:28:02.503Z,28.67
2018-12-31T18:30:32.749Z,32.05
2018-12-31T18:33:02.379Z,36.40
2018-12-31T18:35:32.365Z,464.77
2018-12-31T18:38:02.638Z,142.03
2018-12-31T18:40:32.413Z,40.88
2018-12-31T18:43:03.003Z,39.40
2018-12-31T18:45:32.798Z,37.23
2018-12-31T18:48:02.557Z,39.53
2018-12-31T18:50:32.584Z,46.90
2018-12-31T18:53:02.948Z,36.05
2018-12-31T18:55:32.719Z,43.13
2018-12-31T18:58:03.250Z,38.33
2018-12-31T19:00:33.088Z,40.27
2018-12-31T19:03:03.057Z,41.73
2018-12-31T19:05:33.280Z,49.50
2018-12-31T19:08:03.162Z,43.07
2018-12-31T19:10:32.907Z,46.50
2018-12-31T19:13:02.941Z,39.27
2018-12-31T19:15:33.361Z,39.73
2018-12-31T19:18:03.382Z,41.10
2018-12-31T19:20:33.280Z,36.60
2018-12-31T19:23:03.121Z,41.90
2018-12-31T19:25:34.086Z,40.83
2018-12-31T19:28:03.597Z,47.97
2018-12-31T19:30:33.321Z,53.08
2018-12-31T19:33:03.265Z,39.58
2018-12-31T19:35:33.411Z,39.83
2018-12-31T19:38:03.622Z,44.80
2018-12-31T19:40:34.172Z,41.53
2018-12-31T19:43:03.715Z,40.43
2018-12-31T19:45:33.803Z,37.17
2018-12-31T19:48:03.844Z,43.87
2018-12-31T19:50:33.856Z,46.02
2018-12-31T19:53:03.906Z,43.92
2018-12-31T19:55:33.855Z,41.20
2018-12-31T19:58:03.966Z,40.80
2018-12-31T20:00:33.930Z,47.35
2018-12-31T20:03:03.789Z,48.33
2018-12-31T20:05:33.784Z,40.88
2018-12-31T20:08:04.268Z,48.05
2018-12-31T20:10:34.665Z,49.77
2018-12-31T20:13:04.348Z,49.17
2018-12-31T20:15:34.104Z,46.50
2018-12-31T20:18:04.272Z,50.33
2018-12-31T20:20:34.760Z,45.28
2018-12-31T20:23:04.333Z,51.17
2018-12-31T20:25:34.478Z,55.87
2018-12-31T20:28:06.056Z,44.33
2018-12-31T20:30:35.513Z,48.27
2018-12-31T20:33:05.223Z,45.27
2018-12-31T20:35:34.743Z,51.47
2018-12-31T20:38:04.521Z,53.77
2018-12-31T20:40:34.739Z,53.68
2018-12-31T20:43:04.437Z,50.23
2018-12-31T20:45:34.768Z,46.80
2018-12-31T20:48:04.805Z,48.48
2018-12-31T20:50:34.625Z,48.87
2018-12-31T20:53:04.735Z,56.95
2018-12-31T20:55:34.838Z,52.55
2018-12-31T20:58:05.132Z,52.45
2018-12-31T21:00:34.819Z,56.27
2018-12-31T21:03:04.838Z,55.93
2018-12-31T21:05:35.372Z,56.90
2018-12-31T21:08:04.991Z,56.20
2018-12-31T21:10:34.948Z,60.50
2018-12-31T21:13:05.228Z,47.57
2018-12-31T21:15:35.003Z,54.03
2018-12-31T21:18:05.003Z,48.70
2018-12-31T21:20:35.063Z,40.10
2018-12-31T21:23:05.119Z,49.87
2018-12-31T21:25:35.465Z,48.50
2018-12-31T21:28:05.195Z,49.98
2018-12-31T21:30:35.372Z,43.83
2018-12-31T21:33:05.557Z,47.80
2018-12-31T21:35:35.511Z,38.53
2018-12-31T21:38:05.561Z,40.67
2018-12-31T21:40:35.680Z,38.50
2018-12-31T21:43:05.495Z,40.12
2018-12-31T21:45:35.461Z,41.05
2018-12-31T21:48:05.571Z,33.30
2018-12-31T21:50:35.924Z,36.98
2018-12-31T21:53:06.431Z,43.90
2018-12-31T21:55:36.510Z,32.77
2018-12-31T21:58:06.383Z,29.57
2018-12-31T22:00:36.085Z,31.73
2018-12-31T22:03:06.242Z,27.13
2018-12-31T22:05:35.784Z,25.43
2018-12-31T22:08:06.142Z,21.50
2018-12-31T22:10:36.076Z,23.50
2018-12-31T22:13:05.816Z,24.27
2018-12-31T22:15:36.119Z,23.20
2018-12-31T22:18:05.913Z,19.53
2018-12-31T22:20:36.008Z,18.50
2018-12-31T22:23:06.292Z,24.97
2018-12-31T22:25:36.926Z,23.38
2018-12-31T22:28:06.756Z,24.50
2018-12-31T22:30:36.281Z,28.33
2018-12-31T22:33:06.198Z,30.27
2018-12-31T22:35:36.321Z,31.67
2018-12-31T22:38:06.996Z,25.50
2018-12-31T22:40:37.435Z,26.47
2018-12-31T22:43:07.388Z,28.17
2018-12-31T22:45:37.342Z,26.65
2018-12-31T22:48:07.255Z,26.90
2018-12-31T22:50:37.476Z,32.30
2018-12-31T22:53:07.481Z,31.55
2018-12-31T22:55:37.506Z,32.28
2018-12-31T22:58:07.684Z,34.78
2018-12-31T23:00:38.072Z,33.97
2018-12-31T23:03:07.969Z,36.60
2018-12-31T23:05:39.863Z,35.57
2018-12-31T23:08:09.450Z,44.57
2018-12-31T23:10:39.029Z,79.13
2018-12-31T23:13:09.258Z,147.20
2018-12-31T23:15:38.817Z,145.00
2018-12-31T23:18:08.355Z,132.70
2018-12-31T23:20:38.934Z,133.93
2018-12-31T23:23:08.506Z,87.67
2018-12-31T23:25:38.004Z,99.97
2018-12-31T23:28:08.027Z,81.35
2018-12-31T23:30:38.222Z,68.62
2018-12-31T23:33:15.688Z,51.17
2018-12-31T23:35:51.772Z,48.13
2018-12-31T23:38:21.326Z,42.23
2018-12-31T23:40:51.542Z,48.67
2018-12-31T23:43:21.420Z,58.00
2018-12-31T23:45:51.343Z,44.87
2018-12-31T23:48:22.215Z,46.28
2018-12-31T23:50:52.273Z,46.70
2018-12-31T23:53:21.776Z,31.33
2018-12-31T23:55:51.686Z,30.80
2018-12-31T23:58:26.573Z,30.33
